createdAt,value
2019-04-04T00:00:59.023Z,12.00
2019-04-04T00:03:27.615Z,12.20
2019-04-04T00:05:56.728Z,11.87
2019-04-04T00:08:25.845Z,11.77
2019-04-04T00:10:54.513Z,12.07
2019-04-04T00:13:23.183Z,11.97
2019-04-04T00:15:51.812Z,11.80
2019-04-04T00:18:20.296Z,12.03
2019-04-04T00:20:48.854Z,12.50
2019-04-04T00:23:17.334Z,12.27
2019-04-04T00:25:45.920Z,12.33
2019-04-04T00:28:14.882Z,12.37
2019-04-04T00:30:44.092Z,12.03
2019-04-04T00:33:12.652Z,12.50
2019-04-04T00:35:41.468Z,12.40
2019-04-04T00:38:09.951Z,11.97
2019-04-04T00:40:40.103Z,12.20
2019-04-04T00:43:08.745Z,11.80
2019-04-04T00:45:37.332Z,12.13
2019-04-04T00:48:05.810Z,11.87
2019-04-04T00:50:34.912Z,12.13
2019-04-04T00:53:05.076Z,11.83
2019-04-04T00:55:33.657Z,11.97
2019-04-04T00:58:02.132Z,11.87
2019-04-04T01:00:30.714Z,11.87
2019-04-04T01:02:59.276Z,11.43
2019-04-04T01:05:27.789Z,11.13
2019-04-04T01:07:56.349Z,11.30
2019-04-04T01:10:25.005Z,12.10
2019-04-04T01:12:53.571Z,11.67
2019-04-04T01:15:22.160Z,11.30
2019-04-04T01:17:50.731Z,11.03
2019-04-04T01:20:20.415Z,10.90
2019-04-04T01:22:49.387Z,11.20
2019-04-04T01:25:37.312Z,10.80
2019-04-04T01:28:06.132Z,11.37
2019-04-04T01:30:36.107Z,11.13
2019-04-04T01:33:04.739Z,11.10
2019-04-04T01:35:34.193Z,11.40
2019-04-04T01:38:02.680Z,10.43
2019-04-04T01:40:33.707Z,12.10
2019-04-04T01:43:01.468Z,10.70
2019-04-04T01:45:30.026Z,11.20
2019-04-04T01:47:58.623Z,11.57
2019-04-04T01:50:27.174Z,11.43
2019-04-04T01:52:58.894Z,10.70
2019-04-04T01:55:26.024Z,11.17
2019-04-04T01:57:54.538Z,10.97
2019-04-04T02:00:23.156Z,10.50
2019-04-04T02:02:51.910Z,10.73
2019-04-04T02:05:20.975Z,10.70
2019-04-04T02:07:49.596Z,10.43
2019-04-04T02:10:18.151Z,10.07
2019-04-04T02:12:46.739Z,10.90
2019-04-04T02:15:15.376Z,10.73
2019-04-04T02:17:44.012Z,10.53
2019-04-04T02:20:12.736Z,10.53
2019-04-04T02:22:41.257Z,10.30
2019-04-04T02:25:10.992Z,10.20
2019-04-04T02:27:39.569Z,10.30
2019-04-04T02:30:09.041Z,10.87
2019-04-04T02:32:37.553Z,10.20
2019-04-04T02:35:10.276Z,10.43
2019-04-04T02:37:37.490Z,10.63
2019-04-04T02:40:08.968Z,10.10
2019-04-04T02:42:38.309Z,10.57
2019-04-04T02:45:07.399Z,10.37
2019-04-04T02:47:36.002Z,10.50
2019-04-04T02:50:06.921Z,10.77
2019-04-04T02:52:35.663Z,10.13
2019-04-04T02:55:05.540Z,10.10
2019-04-04T02:57:34.223Z,9.70
2019-04-04T03:00:03.127Z,10.30
2019-04-04T03:02:31.786Z,10.10
2019-04-04T03:05:00.268Z,10.07
2019-04-04T03:07:30.964Z,10.23
2019-04-04T03:09:59.118Z,9.87
2019-04-04T03:12:27.638Z,9.30
2019-04-04T03:14:56.256Z,9.50
2019-04-04T03:17:24.837Z,9.90
2019-04-04T03:19:53.394Z,9.80
2019-04-04T03:22:21.953Z,9.77
2019-04-04T03:24:50.609Z,9.40
2019-04-04T03:27:19.155Z,9.67
2019-04-04T03:29:47.783Z,9.33
2019-04-04T03:32:16.936Z,8.93
2019-04-04T03:34:50.180Z,9.40
2019-04-04T03:37:16.414Z,9.07
2019-04-04T03:39:44.927Z,9.13
2019-04-04T03:42:13.548Z,9.70
2019-04-04T03:44:42.142Z,9.50
2019-04-04T03:47:11.375Z,8.97
2019-04-04T03:49:40.038Z,9.00
2019-04-04T03:52:11.236Z,9.10
2019-04-04T03:54:38.812Z,9.00
2019-04-04T03:57:11.086Z,9.40
2019-04-04T03:59:37.605Z,9.10
2019-04-04T04:02:06.162Z,9.00
2019-04-04T04:04:34.747Z,8.57
2019-04-04T04:07:03.307Z,8.87
2019-04-04T04:09:31.894Z,8.97
2019-04-04T04:12:00.454Z,9.00
2019-04-04T04:14:29.033Z,9.57
2019-04-04T04:16:57.676Z,9.60
2019-04-04T04:19:29.933Z,8.43
2019-04-04T04:21:56.386Z,9.27
2019-04-04T04:24:26.657Z,9.43
2019-04-04T04:26:55.182Z,9.53
2019-04-04T04:29:23.762Z,9.60
2019-04-04T04:31:52.258Z,9.60
2019-04-04T04:34:20.838Z,9.40
2019-04-04T04:36:49.490Z,9.90
2019-04-04T04:39:18.140Z,9.93
2019-04-04T04:41:46.700Z,9.60
2019-04-04T04:44:15.391Z,9.57
2019-04-04T04:46:43.949Z,9.87
2019-04-04T04:49:12.464Z,10.37
2019-04-04T04:51:43.338Z,10.70
2019-04-04T04:54:11.421Z,9.90
2019-04-04T04:56:39.926Z,10.17
2019-04-04T04:59:27.929Z,9.63
2019-04-04T05:01:56.418Z,10.00
2019-04-04T05:04:28.007Z,9.80
2019-04-04T05:06:55.299Z,10.03
2019-04-04T05:09:23.917Z,10.53
2019-04-04T05:11:52.580Z,10.00
2019-04-04T05:14:21.200Z,9.83
2019-04-04T05:16:49.797Z,9.27
2019-04-04T05:19:18.984Z,9.90
2019-04-04T05:21:48.185Z,9.70
2019-04-04T05:24:18.114Z,9.83
2019-04-04T05:26:47.006Z,9.50
2019-04-04T05:29:15.612Z,10.07
2019-04-04T05:31:44.178Z,9.63
2019-04-04T05:34:12.742Z,9.00
2019-04-04T05:36:41.343Z,9.13
2019-04-04T05:39:09.917Z,9.77
2019-04-04T05:41:38.513Z,9.43
2019-04-04T05:44:09.053Z,9.50
2019-04-04T05:46:37.327Z,8.93
2019-04-04T05:49:08.117Z,9.43
2019-04-04T05:51:36.408Z,9.37
2019-04-04T05:54:06.993Z,8.83
2019-04-04T05:56:35.376Z,9.20
2019-04-04T05:59:04.263Z,8.80
2019-04-04T06:01:34.867Z,9.10
2019-04-04T06:04:04.083Z,8.97
2019-04-04T06:06:33.379Z,9.30
2019-04-04T06:09:03.303Z,8.40
2019-04-04T06:11:31.863Z,8.60
2019-04-04T06:14:00.451Z,8.70
2019-04-04T06:16:29.085Z,8.90
2019-04-04T06:18:57.712Z,9.03
2019-04-04T06:21:26.473Z,8.77
2019-04-04T06:23:55.962Z,9.10
2019-04-04T06:26:25.387Z,8.67
2019-04-04T06:28:54.056Z,9.40
2019-04-04T06:31:26.191Z,8.47
2019-04-04T06:33:53.122Z,8.80
2019-04-04T06:36:21.717Z,8.70
2019-04-04T06:38:52.164Z,8.63
2019-04-04T06:41:20.713Z,8.60
2019-04-04T06:43:49.327Z,8.50
2019-04-04T06:46:21.121Z,8.60
2019-04-04T06:48:48.141Z,8.50
2019-04-04T06:51:16.731Z,8.10
2019-04-04T06:53:46.878Z,8.70
2019-04-04T06:56:15.659Z,8.23
2019-04-04T06:58:44.217Z,8.03
2019-04-04T07:01:12.827Z,8.30
2019-04-04T07:03:41.392Z,8.20
2019-04-04T07:06:10.313Z,7.90
2019-04-04T07:08:39.362Z,8.03
2019-04-04T07:11:20.620Z,7.87
2019-04-04T07:13:42.710Z,8.17
2019-04-04T07:16:08.537Z,8.30
2019-04-04T07:18:37.092Z,7.27
2019-04-04T07:21:05.854Z,8.33
2019-04-04T07:23:34.411Z,7.83
2019-04-04T07:26:03.840Z,7.40
2019-04-04T07:28:32.403Z,7.27
2019-04-04T07:31:01.824Z,7.90
2019-04-04T07:33:31.069Z,7.63
2019-04-04T07:35:59.651Z,7.03
2019-04-04T07:38:28.722Z,6.97
2019-04-04T07:40:58.083Z,6.77
2019-04-04T07:43:26.826Z,6.83
2019-04-04T07:45:59.767Z,6.67
2019-04-04T07:48:28.397Z,6.70
2019-04-04T07:50:58.273Z,6.30
2019-04-04T07:53:28.248Z,6.80
2019-04-04T07:55:56.546Z,6.80
2019-04-04T07:58:25.163Z,7.40
2019-04-04T08:00:53.895Z,6.60
2019-04-04T08:03:22.379Z,6.10
2019-04-04T08:05:50.971Z,6.70
2019-04-04T08:08:19.539Z,6.00
2019-04-04T08:10:48.225Z,6.47
2019-04-04T08:13:16.777Z,6.90
2019-04-04T08:15:45.371Z,6.80
2019-04-04T08:18:13.935Z,6.30
2019-04-04T08:20:42.528Z,6.53
2019-04-04T08:23:11.089Z,6.63
2019-04-04T08:25:39.737Z,6.50
2019-04-04T08:28:08.375Z,6.50
2019-04-04T08:30:36.935Z,6.87
2019-04-04T08:33:05.521Z,6.90
2019-04-04T08:35:34.035Z,6.57
2019-04-04T08:38:02.611Z,6.47
2019-04-04T08:40:31.172Z,6.20
2019-04-04T08:42:59.762Z,6.67
2019-04-04T08:45:28.243Z,6.43
2019-04-04T08:47:56.863Z,6.20
2019-04-04T08:50:25.414Z,6.10
2019-04-04T08:52:55.057Z,6.00
2019-04-04T08:55:23.623Z,6.30
2019-04-04T08:57:52.230Z,6.60
2019-04-04T09:00:20.855Z,6.10
2019-04-04T09:02:49.503Z,5.93
2019-04-04T09:05:18.079Z,6.30
2019-04-04T09:07:46.693Z,5.77
2019-04-04T09:10:15.435Z,7.57
2019-04-04T09:12:44.042Z,5.30
2019-04-04T09:15:12.952Z,6.23
2019-04-04T09:17:41.544Z,4.57
2019-04-04T09:20:10.559Z,4.80
2019-04-04T09:22:40.800Z,4.77
2019-04-04T09:25:10.976Z,5.10
2019-04-04T09:27:39.724Z,5.03
2019-04-04T09:30:09.121Z,5.00
2019-04-04T09:32:37.732Z,4.90
2019-04-04T09:35:08.238Z,5.17
2019-04-04T09:37:36.891Z,5.40
2019-04-04T09:40:09.008Z,5.23
2019-04-04T09:42:37.596Z,5.40
2019-04-04T09:45:10.187Z,5.30
2019-04-04T09:47:38.846Z,5.23
2019-04-04T09:50:08.466Z,5.57
2019-04-04T09:52:37.055Z,5.60
2019-04-04T09:55:08.233Z,4.73
2019-04-04T09:57:37.084Z,5.03
2019-04-04T10:00:11.676Z,5.03
2019-04-04T10:02:40.802Z,5.77
2019-04-04T10:05:09.940Z,5.30
2019-04-04T10:07:38.594Z,5.30
2019-04-04T10:10:08.699Z,5.70
2019-04-04T10:12:37.383Z,4.87
2019-04-04T10:15:06.975Z,5.10
2019-04-04T10:17:35.579Z,4.80
2019-04-04T10:20:07.056Z,4.60
2019-04-04T10:22:35.752Z,4.93
2019-04-04T10:25:05.390Z,4.63
2019-04-04T10:27:34.095Z,4.77
2019-04-04T10:30:02.787Z,4.93
2019-04-04T10:32:31.353Z,5.00
2019-04-04T10:35:00.003Z,5.15
2019-04-04T10:37:28.563Z,4.90
2019-04-04T10:39:57.325Z,4.70
2019-04-04T10:42:25.877Z,5.00
2019-04-04T10:44:54.542Z,4.90
2019-04-04T10:47:23.218Z,4.62
2019-04-04T10:49:51.790Z,4.60
2019-04-04T10:52:20.504Z,4.45
2019-04-04T10:54:49.079Z,4.50
2019-04-04T10:57:17.739Z,4.53
2019-04-04T10:59:46.310Z,4.67
2019-04-04T11:02:14.891Z,4.80
2019-04-04T11:04:43.451Z,4.50
2019-04-04T11:07:12.063Z,4.35
2019-04-04T11:09:42.218Z,4.33
2019-04-04T11:12:11.078Z,4.55
2019-04-04T11:14:39.659Z,4.37
2019-04-04T11:17:08.343Z,4.22
2019-04-04T11:19:36.907Z,4.55
2019-04-04T11:22:05.573Z,4.40
2019-04-04T11:24:34.179Z,4.47
2019-04-04T11:27:02.763Z,4.72
2019-04-04T11:29:31.367Z,5.00
2019-04-04T11:31:59.959Z,5.10
2019-04-04T11:34:28.517Z,4.72
2019-04-04T11:36:57.187Z,5.03
2019-04-04T11:39:25.788Z,4.67
2019-04-04T11:41:54.417Z,4.47
2019-04-04T11:44:23.019Z,5.17
2019-04-04T11:46:51.583Z,4.60
2019-04-04T11:49:20.192Z,4.50
2019-04-04T11:51:48.758Z,4.97
2019-04-04T11:54:17.355Z,4.80
2019-04-04T11:56:45.920Z,5.22
2019-04-04T11:59:14.507Z,5.35
2019-04-04T12:01:44.716Z,5.37
2019-04-04T12:04:13.385Z,5.12
2019-04-04T12:06:41.942Z,5.25
2019-04-04T12:09:10.606Z,5.00
2019-04-04T12:11:39.227Z,5.03
2019-04-04T12:14:07.833Z,4.78
2019-04-04T12:16:36.483Z,5.12
2019-04-04T12:19:05.477Z,5.08
2019-04-04T12:21:53.634Z,5.53
2019-04-04T12:24:22.223Z,5.50
2019-04-04T12:26:50.845Z,5.33
2019-04-04T12:29:19.373Z,4.90
2019-04-04T12:31:47.945Z,4.97
2019-04-04T12:34:16.529Z,5.12
2019-04-04T12:36:45.077Z,5.03
2019-04-04T12:39:13.665Z,5.00
2019-04-04T12:41:42.224Z,5.25
2019-04-04T12:44:10.815Z,5.20
2019-04-04T12:46:42.268Z,5.10
2019-04-04T12:49:09.621Z,5.00
2019-04-04T12:51:38.101Z,5.00
2019-04-04T12:54:06.821Z,4.87
2019-04-04T12:56:35.303Z,5.72
2019-04-04T12:59:03.893Z,5.55
2019-04-04T13:01:32.453Z,5.58
2019-04-04T13:04:01.037Z,5.28
2019-04-04T13:06:29.597Z,4.75
2019-04-04T13:08:58.193Z,5.53
2019-04-04T13:11:26.750Z,5.50
2019-04-04T13:13:55.364Z,5.30
2019-04-04T13:16:24.037Z,5.78
2019-04-04T13:18:52.621Z,5.45
2019-04-04T13:21:21.640Z,5.60
2019-04-04T13:23:50.266Z,5.30
2019-04-04T13:26:18.882Z,5.95
2019-04-04T13:28:47.415Z,5.90
2019-04-04T13:31:15.992Z,5.62
2019-04-04T13:33:44.541Z,5.72
2019-04-04T13:36:13.133Z,5.75
2019-04-04T13:38:41.703Z,5.28
2019-04-04T13:41:21.430Z,5.80
2019-04-04T13:43:40.580Z,5.15
2019-04-04T13:46:11.034Z,5.37
2019-04-04T13:48:43.298Z,4.95
2019-04-04T13:51:09.982Z,5.30
2019-04-04T13:53:41.236Z,5.22
2019-04-04T13:56:08.856Z,5.40
2019-04-04T13:58:37.495Z,5.45
2019-04-04T14:01:06.149Z,5.55
2019-04-04T14:03:34.665Z,5.90
2019-04-04T14:06:03.257Z,5.28
2019-04-04T14:08:31.840Z,5.42
2019-04-04T14:11:00.429Z,5.25
2019-04-04T14:13:28.988Z,5.60
2019-04-04T14:15:57.569Z,5.75
2019-04-04T14:18:39.106Z,5.22
2019-04-04T14:21:03.486Z,5.75
2019-04-04T14:23:27.093Z,5.70
2019-04-04T14:25:55.625Z,5.78
2019-04-04T14:28:24.413Z,5.87
2019-04-04T14:30:53.037Z,6.17
2019-04-04T14:33:21.589Z,6.07
2019-04-04T14:35:50.263Z,6.00
2019-04-04T14:38:18.833Z,6.00
2019-04-04T14:40:47.345Z,5.50
2019-04-04T14:43:15.905Z,5.37
2019-04-04T14:45:44.499Z,5.70
2019-04-04T14:48:13.198Z,5.50
2019-04-04T14:50:41.858Z,6.07
2019-04-04T14:53:10.419Z,5.80
2019-04-04T14:55:39.166Z,5.80
2019-04-04T14:58:07.890Z,5.53
2019-04-04T15:00:36.483Z,5.60
2019-04-04T15:03:05.042Z,5.40
2019-04-04T15:05:33.537Z,5.53
2019-04-04T15:08:02.126Z,5.90
2019-04-04T15:10:30.675Z,5.33
2019-04-04T15:12:59.266Z,4.50
2019-04-04T15:15:27.814Z,4.53
2019-04-04T15:17:56.413Z,5.07
2019-04-04T15:20:24.948Z,4.47
2019-04-04T15:22:53.617Z,5.00
2019-04-04T15:25:22.203Z,5.10
2019-04-04T15:27:50.789Z,5.30
2019-04-04T15:30:19.354Z,5.50
2019-04-04T15:32:47.949Z,5.67
2019-04-04T15:35:16.529Z,6.30
2019-04-04T15:37:45.205Z,6.40
2019-04-04T15:40:13.897Z,5.83
2019-04-04T15:42:42.492Z,5.73
2019-04-04T15:45:11.494Z,5.17
2019-04-04T15:47:40.206Z,5.53
2019-04-04T15:50:08.961Z,5.53
2019-04-04T15:52:37.576Z,5.77
2019-04-04T15:55:06.461Z,5.90
2019-04-04T15:57:35.103Z,6.40
2019-04-04T16:00:05.455Z,6.87
2019-04-04T16:02:34.062Z,6.23
2019-04-04T16:05:02.692Z,6.40
2019-04-04T16:07:31.428Z,6.57
2019-04-04T16:09:59.910Z,6.13
2019-04-04T16:12:28.498Z,6.13
2019-04-04T16:14:57.058Z,6.50
2019-04-04T16:17:25.674Z,6.70
2019-04-04T16:19:54.229Z,6.55
2019-04-04T16:22:22.781Z,5.90
2019-04-04T16:24:51.398Z,6.37
2019-04-04T16:27:20.049Z,6.63
2019-04-04T16:29:48.611Z,6.10
2019-04-04T16:32:17.176Z,6.83
2019-04-04T16:34:45.838Z,6.73
2019-04-04T16:37:14.397Z,7.03
2019-04-04T16:39:42.910Z,7.13
2019-04-04T16:42:11.449Z,7.07
2019-04-04T16:44:40.072Z,7.07
2019-04-04T16:47:08.630Z,7.20
2019-04-04T16:49:38.376Z,6.57
2019-04-04T16:52:07.345Z,7.30
2019-04-04T16:54:35.969Z,7.47
2019-04-04T16:57:04.597Z,6.87
2019-04-04T16:59:33.188Z,7.40
2019-04-04T17:02:01.750Z,7.47
2019-04-04T17:04:30.404Z,7.03
2019-04-04T17:06:58.973Z,7.13
2019-04-04T17:09:27.582Z,7.60
2019-04-04T17:11:56.169Z,7.43
2019-04-04T17:14:24.761Z,6.87
2019-04-04T17:16:53.264Z,7.37
2019-04-04T17:19:21.856Z,7.33
2019-04-04T17:21:50.405Z,7.07
2019-04-04T17:24:18.993Z,6.83
2019-04-04T17:26:47.558Z,6.87
2019-04-04T17:29:16.154Z,6.80
2019-04-04T17:31:44.791Z,6.90
2019-04-04T17:34:13.569Z,6.57
2019-04-04T17:36:42.189Z,6.73
2019-04-04T17:39:10.814Z,6.70
2019-04-04T17:41:39.421Z,6.50
2019-04-04T17:44:08.042Z,6.20
2019-04-04T17:46:36.761Z,6.40
2019-04-04T17:49:05.499Z,6.70
2019-04-04T17:51:34.326Z,6.20
2019-04-04T17:54:02.823Z,6.43
2019-04-04T17:56:31.742Z,6.37
2019-04-04T17:59:00.461Z,6.50
2019-04-04T18:01:29.123Z,6.90
2019-04-04T18:03:57.710Z,6.30
2019-04-04T18:06:26.270Z,6.53
2019-04-04T18:08:54.868Z,6.50
2019-04-04T18:11:23.514Z,6.60
2019-04-04T18:13:52.112Z,6.83
2019-04-04T18:16:20.684Z,6.70
2019-04-04T18:18:49.238Z,6.90
2019-04-04T18:21:17.839Z,6.73
2019-04-04T18:23:46.397Z,6.87
2019-04-04T18:26:15.046Z,6.93
2019-04-04T18:28:43.544Z,7.30
2019-04-04T18:31:12.188Z,7.23
2019-04-04T18:33:41.194Z,6.90
2019-04-04T18:36:09.822Z,7.00
2019-04-04T18:38:38.954Z,7.00
2019-04-04T18:41:07.539Z,7.23
2019-04-04T18:43:36.119Z,6.97
2019-04-04T18:46:04.933Z,6.83
2019-04-04T18:48:33.494Z,6.97
2019-04-04T18:51:02.114Z,7.07
2019-04-04T18:53:30.729Z,6.63
2019-04-04T18:55:59.319Z,6.83
2019-04-04T18:58:27.869Z,7.00
2019-04-04T19:00:56.453Z,7.00
2019-04-04T19:03:25.269Z,7.07
2019-04-04T19:05:53.933Z,7.23
2019-04-04T19:08:22.413Z,7.00
2019-04-04T19:10:51.086Z,7.10
2019-04-04T19:13:19.743Z,6.73
2019-04-04T19:15:48.318Z,7.80
2019-04-04T19:18:16.867Z,7.40
2019-04-04T19:20:45.459Z,7.73
2019-04-04T19:23:14.026Z,7.40
2019-04-04T19:25:42.689Z,7.33
2019-04-04T19:28:11.338Z,7.80
2019-04-04T19:30:40.121Z,7.77
2019-04-04T19:33:08.702Z,7.50
2019-04-04T19:35:37.269Z,7.90
2019-04-04T19:38:05.989Z,7.83
2019-04-04T19:40:34.469Z,7.93
2019-04-04T19:43:03.120Z,7.90
2019-04-04T19:45:31.748Z,7.43
2019-04-04T19:48:00.346Z,7.20
2019-04-04T19:50:28.905Z,7.77
2019-04-04T19:52:57.585Z,7.87
2019-04-04T19:55:26.139Z,7.40
2019-04-04T19:57:54.785Z,7.50
2019-04-04T20:00:23.681Z,7.07
2019-04-04T20:02:52.269Z,7.87
2019-04-04T20:05:20.916Z,8.03
2019-04-04T20:07:49.484Z,7.10
2019-04-04T20:10:18.178Z,7.83
2019-04-04T20:12:46.789Z,8.20
2019-04-04T20:15:15.670Z,8.03
2019-04-04T20:17:44.268Z,8.30
2019-04-04T20:20:13.057Z,8.30
2019-04-04T20:22:41.654Z,7.87
2019-04-04T20:25:10.380Z,7.70
2019-04-04T20:27:39.041Z,7.70
2019-04-04T20:30:09.582Z,7.67
2019-04-04T20:32:38.270Z,7.00
2019-04-04T20:35:08.191Z,7.73
2019-04-04T20:37:36.820Z,7.87
2019-04-04T20:40:06.145Z,7.37
2019-04-04T20:42:34.717Z,7.53
2019-04-04T20:45:04.725Z,7.23
2019-04-04T20:47:33.876Z,7.60
2019-04-04T20:50:02.645Z,7.23
2019-04-04T20:52:31.232Z,7.20
2019-04-04T20:55:23.605Z,7.63
2019-04-04T20:57:52.196Z,7.63
2019-04-04T21:00:21.067Z,7.70
2019-04-04T21:02:49.648Z,7.50
2019-04-04T21:05:18.214Z,7.50
2019-04-04T21:07:46.809Z,7.53
2019-04-04T21:10:15.610Z,7.43
2019-04-04T21:12:44.162Z,7.20
2019-04-04T21:15:13.308Z,7.03
2019-04-04T21:17:41.864Z,7.50
2019-04-04T21:20:10.882Z,6.97
2019-04-04T21:22:39.429Z,7.07
2019-04-04T21:25:08.290Z,7.00
2019-04-04T21:27:36.782Z,6.70
2019-04-04T21:30:07.514Z,6.90
2019-04-04T21:32:36.126Z,7.10
2019-04-04T21:35:06.759Z,7.70
2019-04-04T21:37:35.306Z,7.13
2019-04-04T21:40:04.247Z,7.00
2019-04-04T21:42:32.801Z,6.83
2019-04-04T21:45:01.402Z,7.00
2019-04-04T21:47:29.978Z,7.03
2019-04-04T21:49:58.547Z,7.37
2019-04-04T21:52:27.098Z,7.30
2019-04-04T21:54:55.690Z,7.20
2019-04-04T21:57:24.247Z,7.60
2019-04-04T21:59:52.826Z,7.80
2019-04-04T22:02:21.492Z,7.67
2019-04-04T22:04:50.099Z,7.40
2019-04-04T22:07:18.746Z,7.40
2019-04-04T22:09:47.426Z,7.00
2019-04-04T22:12:16.178Z,8.10
2019-04-04T22:14:44.782Z,7.23
2019-04-04T22:17:13.362Z,7.30
2019-04-04T22:19:41.974Z,7.60
2019-04-04T22:22:10.551Z,8.20
2019-04-04T22:24:39.163Z,7.53
2019-04-04T22:27:07.747Z,7.73
2019-04-04T22:29:36.370Z,6.90
2019-04-04T22:32:05.106Z,7.60
2019-04-04T22:34:33.679Z,7.03
2019-04-04T22:37:02.291Z,7.10
2019-04-04T22:39:30.870Z,7.10
2019-04-04T22:41:59.474Z,7.30
2019-04-04T22:44:34.686Z,7.40
2019-04-04T22:46:58.315Z,7.50
2019-04-04T22:49:26.886Z,7.10
2019-04-04T22:51:55.498Z,7.50
2019-04-04T22:54:24.087Z,7.47
2019-04-04T22:56:52.694Z,7.53
2019-04-04T22:59:21.284Z,7.27
2019-04-04T23:01:49.903Z,7.53
2019-04-04T23:04:18.652Z,7.07
2019-04-04T23:06:47.258Z,7.10
2019-04-04T23:09:15.838Z,7.27
2019-04-04T23:11:44.451Z,7.20
2019-04-04T23:14:13.027Z,7.00
2019-04-04T23:16:41.650Z,7.70
2019-04-04T23:19:10.223Z,7.40
2019-04-04T23:21:38.847Z,7.67
2019-04-04T23:24:07.427Z,7.50
2019-04-04T23:26:36.035Z,7.67
2019-04-04T23:29:04.617Z,7.23
2019-04-04T23:31:33.227Z,7.60
2019-04-04T23:34:01.802Z,7.80
2019-04-04T23:36:35.049Z,7.90
2019-04-04T23:39:00.638Z,7.90
2019-04-04T23:41:29.255Z,8.13
2019-04-04T23:43:57.858Z,8.47
2019-04-04T23:46:26.482Z,12.33
2019-04-04T23:48:55.071Z,20.30
2019-04-04T23:51:23.786Z,23.20
2019-04-04T23:53:52.375Z,25.57
2019-04-04T23:56:20.989Z,27.87
2019-04-04T23:58:49.639Z,29.17
